Aviation Digital Data Service (ADDS)

Output produced by METARs form (2028 UTC 23 January 2019)
found at http://www.aviationweather.gov/metar/data/
 
METAR text: MZBZ 232000Z 12009KT 9999 FEW026 29/23 A2987 Q1011 NOSIG
Conditions at: MZBZ (BELIZE INTL , BZ) observed 2000 UTC 23 January 2019
Temperature: 29.0°C (84°F)
Dewpoint: 23.0°C (73°F) [RH = 70%]
Pressure (altimeter): 29.85 inches Hg (1011.0 mb)
Winds: from the ESE (120 degrees) at 10 MPH (9 knots; 4.6 m/s)
Visibility: 6 or more miles (10+ km)
Ceiling: at least 12,000 feet AGL
Clouds: few clouds at 2600 feet AGL
Weather: no significant weather observed at this time

METAR text: MZBZ 231900Z 13008G18KT 9999 FEW025 29/23 A2990 Q1012 NOSIG
Conditions at: MZBZ (BELIZE INTL , BZ) observed 1900 UTC 23 January 2019
Temperature: 29.0°C (84°F)
Dewpoint: 23.0°C (73°F) [RH = 70%]
Pressure (altimeter): 29.88 inches Hg (1012.0 mb)
Winds: from the SE (130 degrees) at 9 MPH (8 knots; 4.1 m/s)
gusting to 21 MPH (18 knots; 9.3 m/s)
Visibility: 6 or more miles (10+ km)
Ceiling: at least 12,000 feet AGL
Clouds: few clouds at 2500 feet AGL
Weather: no significant weather observed at this time

METAR text: MZBZ 231800Z 13008G18KT 9999 FEW024 29/26 A2992 Q1012 NOSIG
Conditions at: MZBZ (BELIZE INTL , BZ) observed 1800 UTC 23 January 2019
Temperature: 29.0°C (84°F)
Dewpoint: 26.0°C (79°F) [RH = 84%]
Pressure (altimeter): 29.88 inches Hg (1012.0 mb)
Winds: from the SE (130 degrees) at 9 MPH (8 knots; 4.1 m/s)
gusting to 21 MPH (18 knots; 9.3 m/s)
Visibility: 6 or more miles (10+ km)
Ceiling: at least 12,000 feet AGL
Clouds: few clouds at 2400 feet AGL
Weather: no significant weather observed at this time

METAR text: MZBZ 231700Z 12008KT 9999 SCT022 29/24 A2996 Q1014 NOSIG
Conditions at: MZBZ (BELIZE INTL , BZ) observed 1700 UTC 23 January 2019
Temperature: 29.0°C (84°F)
Dewpoint: 24.0°C (75°F) [RH = 74%]
Pressure (altimeter): 29.94 inches Hg (1014.0 mb)
Winds: from the ESE (120 degrees) at 9 MPH (8 knots; 4.1 m/s)
Visibility: 6 or more miles (10+ km)
Ceiling: at least 12,000 feet AGL
Clouds: scattered clouds at 2200 feet AGL
Weather: no significant weather observed at this time

METAR text: MZBZ 231600Z 12008KT 9999 FEW020 29/24 A2997 Q1015 NOSIG
Conditions at: MZBZ (BELIZE INTL , BZ) observed 1600 UTC 23 January 2019
Temperature: 29.0°C (84°F)
Dewpoint: 24.0°C (75°F) [RH = 74%]
Pressure (altimeter): 29.97 inches Hg (1015.0 mb)
Winds: from the ESE (120 degrees) at 9 MPH (8 knots; 4.1 m/s)
Visibility: 6 or more miles (10+ km)
Ceiling: at least 12,000 feet AGL
Clouds: few clouds at 2000 feet AGL
Weather: no significant weather observed at this time

METAR text: MZBZ 231500Z 14008KT 9999 FEW020 27/24 A2997 Q1015 NOSIG
Conditions at: MZBZ (BELIZE INTL , BZ) observed 1500 UTC 23 January 2019
Temperature: 27.0°C (81°F)
Dewpoint: 24.0°C (75°F) [RH = 84%]
Pressure (altimeter): 29.97 inches Hg (1015.0 mb)
Winds: from the SE (140 degrees) at 9 MPH (8 knots; 4.1 m/s)
Visibility: 6 or more miles (10+ km)
Ceiling: at least 12,000 feet AGL
Clouds: few clouds at 2000 feet AGL
Weather: no significant weather observed at this time

METAR text: MZBZ 231400Z 13005KT 9999 FEW017 26/24 A2994 Q1014 NOSIG
Conditions at: MZBZ (BELIZE INTL , BZ) observed 1400 UTC 23 January 2019
Temperature: 26.0°C (79°F)
Dewpoint: 24.0°C (75°F) [RH = 89%]
Pressure (altimeter): 29.94 inches Hg (1014.0 mb)
Winds: from the SE (130 degrees) at 6 MPH (5 knots; 2.6 m/s)
Visibility: 6 or more miles (10+ km)
Ceiling: at least 12,000 feet AGL
Clouds: few clouds at 1700 feet AGL
Weather: no significant weather observed at this time

METAR text: MZBZ 231300Z 11004KT 9999 FEW016 24/23 A2993 Q1013 NOSIG
Conditions at: MZBZ (BELIZE INTL , BZ) observed 1300 UTC 23 January 2019
Temperature: 24.0°C (75°F)
Dewpoint: 23.0°C (73°F) [RH = 94%]
Pressure (altimeter): 29.91 inches Hg (1013.0 mb)
Winds: from the ESE (110 degrees) at 5 MPH (4 knots; 2.1 m/s)
Visibility: 6 or more miles (10+ km)
Ceiling: at least 12,000 feet AGL
Clouds: few clouds at 1600 feet AGL
Weather: no significant weather observed at this time

METAR text: MZBZ 231200Z 11004KT 9999 FEW015 23/23 A2992 Q1013 NOSIG
Conditions at: MZBZ (BELIZE INTL , BZ) observed 1200 UTC 23 January 2019
Temperature: 23.0°C (73°F)
Dewpoint: 23.0°C (73°F) [RH = 100%]
Pressure (altimeter): 29.91 inches Hg (1013.0 mb)
Winds: from the ESE (110 degrees) at 5 MPH (4 knots; 2.1 m/s)
Visibility: 6 or more miles (10+ km)
Ceiling: at least 12,000 feet AGL
Clouds: few clouds at 1500 feet AGL
Weather: no significant weather observed at this time

METAR text: MZBZ 231100Z 00000KT 9999 FEW015 21/20 A2991 Q1013 NOSIG
Conditions at: MZBZ (BELIZE INTL , BZ) observed 1100 UTC 23 January 2019
Temperature: 21.0°C (70°F)
Dewpoint: 20.0°C (68°F) [RH = 94%]
Pressure (altimeter): 29.91 inches Hg (1013.0 mb)
Winds: calm
Visibility: 6 or more miles (10+ km)
Ceiling: at least 12,000 feet AGL
Clouds: few clouds at 1500 feet AGL
Weather: no significant weather observed at this time

METAR text: MZBZ 230000Z 00000KT 9999 FEW018 23/22 A2997 Q1015 NOSIG
Conditions at: MZBZ (BELIZE INTL , BZ) observed 0000 UTC 23 January 2019
Temperature: 23.0°C (73°F)
Dewpoint: 22.0°C (72°F) [RH = 94%]
Pressure (altimeter): 29.97 inches Hg (1015.0 mb)
Winds: calm
Visibility: 6 or more miles (10+ km)
Ceiling: at least 12,000 feet AGL
Clouds: few clouds at 1800 feet AGL
Weather: no significant weather observed at this time

METAR text: MZBZ 222300Z 06003KT 9999 FEW018 BKN048 24/22 A2998 Q1015 NOSIG
Conditions at: MZBZ (BELIZE INTL , BZ) observed 2300 UTC 22 January 2019
Temperature: 24.0°C (75°F)
Dewpoint: 22.0°C (72°F) [RH = 89%]
Pressure (altimeter): 29.97 inches Hg (1015.0 mb)
Winds: from the ENE (60 degrees) at 3 MPH (3 knots; 1.5 m/s)
Visibility: 6 or more miles (10+ km)
Ceiling: 4800 feet AGL
Clouds: few clouds at 1800 feet AGL
broken clouds at 4800 feet AGL
Weather: no significant weather observed at this time

METAR text: MZBZ 222200Z 00000KT 9999 FEW010 BKN045 24/22 A2998 Q1015 NOSIG
Conditions at: MZBZ (BELIZE INTL , BZ) observed 2200 UTC 22 January 2019
Temperature: 24.0°C (75°F)
Dewpoint: 22.0°C (72°F) [RH = 89%]
Pressure (altimeter): 29.97 inches Hg (1015.0 mb)
Winds: calm
Visibility: 6 or more miles (10+ km)
Ceiling: 4500 feet AGL
Clouds: few clouds at 1000 feet AGL
broken clouds at 4500 feet AGL
Weather: no significant weather observed at this time

METAR text: MZBZ 222115Z 35004KT 9999 SCT008 BKN040 23/22 A2998 Q1015 NOSIG
Conditions at: MZBZ (BELIZE INTL , BZ) observed 2115 UTC 22 January 2019
Temperature: 23.0°C (73°F)
Dewpoint: 22.0°C (72°F) [RH = 94%]
Pressure (altimeter): 29.97 inches Hg (1015.0 mb)
Winds: from the N (350 degrees) at 5 MPH (4 knots; 2.1 m/s)
Visibility: 6 or more miles (10+ km)
Ceiling: 4000 feet AGL
Clouds: scattered clouds at 800 feet AGL
broken clouds at 4000 feet AGL
Weather: no significant weather observed at this time

METAR text: MZBZ 222100Z 32003KT 9999 BKN008 BKN035 23/22 A2998 Q1015 RERA NOSIG
Conditions at: MZBZ (BELIZE INTL , BZ) observed 2100 UTC 22 January 2019
Temperature: 23.0°C (73°F)
Dewpoint: 22.0°C (72°F) [RH = 94%]
Pressure (altimeter): 29.97 inches Hg (1015.0 mb)
Winds: from the NW (320 degrees) at 3 MPH (3 knots; 1.5 m/s)
Visibility: 6 or more miles (10+ km)
Ceiling: 800 feet AGL
Clouds: broken clouds at 800 feet AGL
broken clouds at 3500 feet AGL
Weather: no significant weather observed at this time

METAR text: MZBZ 222041Z 00000KT 8000 -RA BKN006 SCT018 BKN030 23/21 A2998 Q1015 NOSIG
Conditions at: MZBZ (BELIZE INTL , BZ) observed 2041 UTC 22 January 2019
Temperature: 23.0°C (73°F)
Dewpoint: 21.0°C (70°F) [RH = 89%]
Pressure (altimeter): 29.97 inches Hg (1015.0 mb)
Winds: calm
Visibility: 5 miles ( 8 km)
Ceiling: 600 feet AGL
Clouds: broken clouds at 600 feet AGL
scattered clouds at 1800 feet AGL
broken clouds at 3000 feet AGL
Weather: -RA  (light rain)

METAR text: MZBZ 222029Z 00000KT 3500 RA BKN005 SCT016 BKN030 23/21 A2998 Q1015 BECMG AT2045 5000
Conditions at: MZBZ (BELIZE INTL , BZ) observed 2029 UTC 22 January 2019
Temperature: 23.0°C (73°F)
Dewpoint: 21.0°C (70°F) [RH = 89%]
Pressure (altimeter): 29.97 inches Hg (1015.0 mb)
Winds: calm
Visibility: 2.17 miles (3.49 km)
Ceiling: 500 feet AGL
Clouds: broken clouds at 500 feet AGL
scattered clouds at 1600 feet AGL
broken clouds at 3000 feet AGL
Weather: RA  (moderate rain)

METAR text: MZBZ 222000Z 00000KT 6000 -RA BKN005 SCT018 BKN030 23/21 A3000 Q1016 NOSIG
Conditions at: MZBZ (BELIZE INTL , BZ) observed 2000 UTC 22 January 2019
Temperature: 23.0°C (73°F)
Dewpoint: 21.0°C (70°F) [RH = 89%]
Pressure (altimeter): 30.00 inches Hg (1016.0 mb)
Winds: calm
Visibility: 4 miles ( 6 km)
Ceiling: 500 feet AGL
Clouds: broken clouds at 500 feet AGL
scattered clouds at 1800 feet AGL
broken clouds at 3000 feet AGL
Weather: -RA  (light rain)

METAR text: MZBZ 221934Z 31003KT 9999 BKN008 BKN035 21/20 A3001 Q1016 RERA NOSIG
Conditions at: MZBZ (BELIZE INTL , BZ) observed 1934 UTC 22 January 2019
Temperature: 21.0°C (70°F)
Dewpoint: 20.0°C (68°F) [RH = 94%]
Pressure (altimeter): 30.00 inches Hg (1016.0 mb)
Winds: from the NW (310 degrees) at 3 MPH (3 knots; 1.5 m/s)
Visibility: 6 or more miles (10+ km)
Ceiling: 800 feet AGL
Clouds: broken clouds at 800 feet AGL
broken clouds at 3500 feet AGL
Weather: no significant weather observed at this time

METAR text: MZBZ 221900Z 28003KT 8000 -RA BKN005 OVC030 21/20 A3003 Q1017 NOSIG
Conditions at: MZBZ (BELIZE INTL , BZ) observed 1900 UTC 22 January 2019
Temperature: 21.0°C (70°F)
Dewpoint: 20.0°C (68°F) [RH = 94%]
Pressure (altimeter): 30.03 inches Hg (1017.0 mb)
Winds: from the W (280 degrees) at 3 MPH (3 knots; 1.5 m/s)
Visibility: 5 miles ( 8 km)
Ceiling: 500 feet AGL
Clouds: broken clouds at 500 feet AGL
overcast cloud deck at 3000 feet AGL
Weather: -RA  (light rain)

METAR text: MZBZ 221833Z 28003KT 5000 -RA BKN005 OVC030 21/18 A3005 Q1017 NOSIG
Conditions at: MZBZ (BELIZE INTL , BZ) observed 1833 UTC 22 January 2019
Temperature: 21.0°C (70°F)
Dewpoint: 18.0°C (64°F) [RH = 83%]
Pressure (altimeter): 30.03 inches Hg (1017.0 mb)
Winds: from the W (280 degrees) at 3 MPH (3 knots; 1.5 m/s)
Visibility: 3 miles ( 5 km)
Ceiling: 500 feet AGL
Clouds: broken clouds at 500 feet AGL
overcast cloud deck at 3000 feet AGL
Weather: -RA  (light rain)

METAR text: MZBZ 221830Z 28003KT 2000 RA BKN005 OVC030 21/18 A3005 Q1017 NOSIG
Conditions at: MZBZ (BELIZE INTL , BZ) observed 1830 UTC 22 January 2019
Temperature: 21.0°C (70°F)
Dewpoint: 18.0°C (64°F) [RH = 83%]
Pressure (altimeter): 30.03 inches Hg (1017.0 mb)
Winds: from the W (280 degrees) at 3 MPH (3 knots; 1.5 m/s)
Visibility: 1.24 miles (2.00 km)
Ceiling: 500 feet AGL
Clouds: broken clouds at 500 feet AGL
overcast cloud deck at 3000 feet AGL
Weather: RA  (moderate rain)

METAR text: MZBZ 221800Z 29003KT 3000 RA BKN005 OVC030 21/20 A3006 Q1018 RERA TEMPO 9999
Conditions at: MZBZ (BELIZE INTL , BZ) observed 1800 UTC 22 January 2019
Temperature: 21.0°C (70°F)
Dewpoint: 20.0°C (68°F) [RH = 94%]
Pressure (altimeter): 30.06 inches Hg (1018.0 mb)
Winds: from the WNW (290 degrees) at 3 MPH (3 knots; 1.5 m/s)
Visibility: 1.86 miles (2.99 km)
Ceiling: 500 feet AGL
Clouds: broken clouds at 500 feet AGL
overcast cloud deck at 3000 feet AGL
Weather: RA  (moderate rain)

METAR text: MZBZ 221735Z 29003KT 7000E 9999 -RA BKN009 OVC035 20/18 A3007 Q1018 NOSIG
Conditions at: MZBZ (BELIZE INTL , BZ) observed 1735 UTC 22 January 2019
Temperature: 20.0°C (68°F)
Dewpoint: 18.0°C (64°F) [RH = 88%]
Pressure (altimeter): 30.06 inches Hg (1018.0 mb)
Winds: from the WNW (290 degrees) at 3 MPH (3 knots; 1.5 m/s)
Visibility: 6 or more miles (10+ km)
Ceiling: 900 feet AGL
Clouds: broken clouds at 900 feet AGL
overcast cloud deck at 3500 feet AGL
Weather: -RA  (light rain)

METAR text: MZBZ 221720Z 29002KT 2500 RA BKN010 OVC035 20/18 A3008 Q1018 TEMPO 9999
Conditions at: MZBZ (BELIZE INTL , BZ) observed 1720 UTC 22 January 2019
Temperature: 20.0°C (68°F)
Dewpoint: 18.0°C (64°F) [RH = 88%]
Pressure (altimeter): 30.06 inches Hg (1018.0 mb)
Winds: from the WNW (290 degrees) at 2 MPH (2 knots; 1.0 m/s)
Visibility: 1.55 miles (2.49 km)
Ceiling: 1000 feet AGL
Clouds: broken clouds at 1000 feet AGL
overcast cloud deck at 3500 feet AGL
Weather: RA  (moderate rain)

METAR text: MZBZ 221700Z 27003KT 4000 RA BKN010 OVC038 21/20 A3008 Q1018 RERA TEMPO 4000 RA
Conditions at: MZBZ (BELIZE INTL , BZ) observed 1700 UTC 22 January 2019
Temperature: 21.0°C (70°F)
Dewpoint: 20.0°C (68°F) [RH = 94%]
Pressure (altimeter): 30.06 inches Hg (1018.0 mb)
Winds: from the W (270 degrees) at 3 MPH (3 knots; 1.5 m/s)
Visibility: 2.49 miles (4.01 km)
Ceiling: 1000 feet AGL
Clouds: broken clouds at 1000 feet AGL
overcast cloud deck at 3800 feet AGL
Weather: RA  (moderate rain)

METAR text: MZBZ 221638Z 30004KT 5000 -RA BKN012 OVC025 20/18 A3009 Q1019 NOSIG
Conditions at: MZBZ (BELIZE INTL , BZ) observed 1638 UTC 22 January 2019
Temperature: 20.0°C (68°F)
Dewpoint: 18.0°C (64°F) [RH = 88%]
Pressure (altimeter): 30.09 inches Hg (1019.0 mb)
Winds: from the WNW (300 degrees) at 5 MPH (4 knots; 2.1 m/s)
Visibility: 3 miles ( 5 km)
Ceiling: 1200 feet AGL
Clouds: broken clouds at 1200 feet AGL
overcast cloud deck at 2500 feet AGL
Weather: -RA  (light rain)

METAR text: MZBZ 221618Z 28003KT 2200 RA BKN015 OVC026 21/19 A3009 Q1019 TEMPO 9999
Conditions at: MZBZ (BELIZE INTL , BZ) observed 1618 UTC 22 January 2019
Temperature: 21.0°C (70°F)
Dewpoint: 19.0°C (66°F) [RH = 88%]
Pressure (altimeter): 30.09 inches Hg (1019.0 mb)
Winds: from the W (280 degrees) at 3 MPH (3 knots; 1.5 m/s)
Visibility: 1.37 miles (2.20 km)
Ceiling: 1500 feet AGL
Clouds: broken clouds at 1500 feet AGL
overcast cloud deck at 2600 feet AGL
Weather: RA  (moderate rain)

METAR text: MZBZ 221600Z 30003KT 9999 -RA BKN016 OVC032 21/19 A3009 Q1019 NOSIG
Conditions at: MZBZ (BELIZE INTL , BZ) observed 1600 UTC 22 January 2019
Temperature: 21.0°C (70°F)
Dewpoint: 19.0°C (66°F) [RH = 88%]
Pressure (altimeter): 30.09 inches Hg (1019.0 mb)
Winds: from the WNW (300 degrees) at 3 MPH (3 knots; 1.5 m/s)
Visibility: 6 or more miles (10+ km)
Ceiling: 1600 feet AGL
Clouds: broken clouds at 1600 feet AGL
overcast cloud deck at 3200 feet AGL
Weather: -RA  (light rain)

METAR text: MZBZ 221540Z 00000KT 3200 -RA FEW015 BKN035 OVC048 21/19 A3009 Q1019 NOSIG
Conditions at: MZBZ (BELIZE INTL , BZ) observed 1540 UTC 22 January 2019
Temperature: 21.0°C (70°F)
Dewpoint: 19.0°C (66°F) [RH = 88%]
Pressure (altimeter): 30.09 inches Hg (1019.0 mb)
Winds: calm
Visibility: 1.99 miles (3.20 km)
Ceiling: 3500 feet AGL
Clouds: few clouds at 1500 feet AGL
broken clouds at 3500 feet AGL
overcast cloud deck at 4800 feet AGL
Weather: -RA  (light rain)

METAR text: MZBZ 221500Z 00000KT 9999 BKN035 OVC049 21/17 A3008 Q1018 NOSIG
Conditions at: MZBZ (BELIZE INTL , BZ) observed 1500 UTC 22 January 2019
Temperature: 21.0°C (70°F)
Dewpoint: 17.0°C (63°F) [RH = 78%]
Pressure (altimeter): 30.06 inches Hg (1018.0 mb)
Winds: calm
Visibility: 6 or more miles (10+ km)
Ceiling: 3500 feet AGL
Clouds: broken clouds at 3500 feet AGL
overcast cloud deck at 4900 feet AGL
Weather: no significant weather observed at this time

METAR text: MZBZ 221400Z 00000KT 9999 FEW017 BKN037 19/16 A3008 Q1018 NOSIG
Conditions at: MZBZ (BELIZE INTL , BZ) observed 1400 UTC 22 January 2019
Temperature: 19.0°C (66°F)
Dewpoint: 16.0°C (61°F) [RH = 83%]
Pressure (altimeter): 30.06 inches Hg (1018.0 mb)
Winds: calm
Visibility: 6 or more miles (10+ km)
Ceiling: 3700 feet AGL
Clouds: few clouds at 1700 feet AGL
broken clouds at 3700 feet AGL
Weather: no significant weather observed at this time

METAR text: MZBZ 221300Z 00000KT 9999 FEW017 BKN036 19/17 A3008 Q1018 NOSIG
Conditions at: MZBZ (BELIZE INTL , BZ) observed 1300 UTC 22 January 2019
Temperature: 19.0°C (66°F)
Dewpoint: 17.0°C (63°F) [RH = 88%]
Pressure (altimeter): 30.06 inches Hg (1018.0 mb)
Winds: calm
Visibility: 6 or more miles (10+ km)
Ceiling: 3600 feet AGL
Clouds: few clouds at 1700 feet AGL
broken clouds at 3600 feet AGL
Weather: no significant weather observed at this time

METAR text: MZBZ 221200Z 29003KT 9999 BKN046 19/17 A3006 Q1018 NOSIG
Conditions at: MZBZ (BELIZE INTL , BZ) observed 1200 UTC 22 January 2019
Temperature: 19.0°C (66°F)
Dewpoint: 17.0°C (63°F) [RH = 88%]
Pressure (altimeter): 30.06 inches Hg (1018.0 mb)
Winds: from the WNW (290 degrees) at 3 MPH (3 knots; 1.5 m/s)
Visibility: 6 or more miles (10+ km)
Ceiling: 4600 feet AGL
Clouds: broken clouds at 4600 feet AGL
Weather: no significant weather observed at this time

METAR text: MZBZ 221100Z 00000KT 9999 BKN035 19/16 A3006 Q1018 NOSIG
Conditions at: MZBZ (BELIZE INTL , BZ) observed 1100 UTC 22 January 2019
Temperature: 19.0°C (66°F)
Dewpoint: 16.0°C (61°F) [RH = 83%]
Pressure (altimeter): 30.06 inches Hg (1018.0 mb)
Winds: calm
Visibility: 6 or more miles (10+ km)
Ceiling: 3500 feet AGL
Clouds: broken clouds at 3500 feet AGL
Weather: no significant weather observed at this time

Forecast for: MZBZ (BELIZE INTL , BZ)
Text: TAF MZBZ 231500Z 2318/2418 11008KT 9999 FEW020
Forecast period: 1800 UTC 23 January 2019 to 0300 UTC 24 January 2019
Forecast type: FROM: standard forecast or significant change
Winds: from the ESE (110 degrees) at 9 MPH (8 knots; 4.1 m/s)
Visibility: 6 or more miles 10+ km)
Ceiling: at least 12,000 feet AGL
Clouds: few clouds at 2000 feet AGL
Weather: no significant weather forecast for this period
Text: BECMG 2403/2405 30003KT
Forecast period: 0300 to 1800 UTC 24 January 2019
Forecast type: BECOMING: Conditions expected to become as follows by 0500 UTC 24 January 2019
Winds: from the WNW (300 degrees) at 3 MPH (3 knots; 1.5 m/s)
Visibility: 6 or more miles 10+ km)
Ceiling: at least 12,000 feet AGL
Clouds: few clouds at 2000 feet AGL
Weather: no significant weather forecast for this period
Text: PROB30
Forecast period: 1100 to 1800 UTC 24 January 2019
Forecast type: TEMPORARY: The following changes expected for less than half the time period
Visibility: 3 miles (5 km)
Ceiling: 1500 feet AGL
Clouds: broken clouds at 1500 feet AGL
Weather: SHRA  (rain showers)